Time;durP1;ratioP1;P1;durP2;ratioP2;P2;SDS_P1;SDS_P2;PMS_P1;PMS_P2;Temp;Humidity;BMP_temperature;BMP_pressure;BME280_temperature;BME280_humidity;BME280_pressure;Samples;Min_cycle;Max_cycle;Signal;HPM_P1;HPM_P2
2021/11/02 00:00:00;;;;;;;14.70;7.50;;;5.70;90.10;;;;;;5010685;28;20179;-71
2021/11/02 00:02:26;;;;;;;13.70;7.90;;;5.70;90.60;;;;;;5011320;28;20255;-71
2021/11/02 00:04:51;;;;;;;15.60;7.67;;;5.70;90.70;;;;;;5031018;28;20620;-71
2021/11/02 00:07:17;;;;;;;22.43;7.97;;;5.70;90.80;;;;;;5007050;28;20183;-71
2021/11/02 00:09:45;;;;;;;12.03;7.07;;;5.70;90.90;;;;;;5013461;28;20182;-71
2021/11/02 00:12:11;;;;;;;11.93;7.00;;;5.70;90.70;;;;;;5014759;28;20185;-70
2021/11/02 00:14:37;;;;;;;14.80;7.23;;;5.60;90.60;;;;;;5035779;28;20190;-71
2021/11/02 00:17:21;;;;;;;14.83;8.37;;;5.60;90.60;;;;;;5027716;28;20184;-71
2021/11/02 00:19:48;;;;;;;15.47;8.10;;;5.60;91.00;;;;;;5011582;28;20240;-71
2021/11/02 00:22:17;;;;;;;16.17;8.53;;;5.60;91.30;;;;;;5029325;28;20235;-71
2021/11/02 00:27:21;;;;;;;11.13;7.33;;;5.60;91.40;;;;;;5027491;28;20697;-71
2021/11/02 00:29:47;;;;;;;12.00;7.90;;;5.60;91.30;;;;;;5032454;28;20191;-71
2021/11/02 00:32:13;;;;;;;8.93;6.57;;;5.60;91.50;;;;;;5029151;28;20908;-71
2021/11/02 00:34:39;;;;;;;13.47;7.97;;;5.50;91.40;;;;;;5011134;28;20235;-72
2021/11/02 00:37:05;;;;;;;10.67;7.50;;;5.60;91.10;;;;;;5026358;28;20188;-71
2021/11/02 00:39:30;;;;;;;18.20;6.20;;;5.60;90.90;;;;;;5030526;28;20692;-71
2021/11/02 00:41:56;;;;;;;12.87;7.57;;;5.50;90.90;;;;;;5027241;28;21073;-71
2021/11/02 00:44:22;;;;;;;13.73;7.30;;;5.50;90.90;;;;;;5030385;28;20323;-71
2021/11/02 00:46:50;;;;;;;9.90;6.43;;;5.50;91.10;;;;;;5028301;28;20211;-71
2021/11/02 00:49:22;;;;;;;11.70;7.37;;;5.50;91.40;;;;;;5028028;28;20750;-71
2021/11/02 00:51:51;;;;;;;12.60;7.77;;;5.50;91.60;;;;;;5030634;28;20195;-71
2021/11/02 00:54:17;;;;;;;11.83;6.83;;;5.50;91.70;;;;;;5032405;28;20184;-72
2021/11/02 00:56:44;;;;;;;11.80;6.50;;;5.50;91.70;;;;;;5029288;28;20197;-71
2021/11/02 00:59:10;;;;;;;7.20;5.30;;;5.50;91.60;;;;;;5021842;28;20243;-71
2021/11/02 01:01:38;;;;;;;13.00;7.03;;;5.50;91.70;;;;;;5023776;28;20180;-71
2021/11/02 01:04:04;;;;;;;12.70;7.27;;;5.50;92.10;;;;;;5029421;28;20191;-71
2021/11/02 01:06:35;;;;;;;9.97;6.47;;;5.50;91.70;;;;;;5030509;28;20188;-71
2021/11/02 01:09:05;;;;;;;12.03;6.40;;;5.50;91.50;;;;;;5034451;28;20179;-71
2021/11/02 01:11:30;;;;;;;11.97;6.23;;;5.60;91.30;;;;;;5033777;28;20259;-71
2021/11/02 01:13:56;;;;;;;8.30;6.37;;;5.60;91.20;;;;;;5032906;28;20333;-70
2021/11/02 01:16:24;;;;;;;12.20;7.47;;;5.70;91.10;;;;;;5028971;28;20180;-70
2021/11/02 01:18:54;;;;;;;12.40;7.47;;;5.70;91.40;;;;;;5035768;28;20254;-70
2021/11/02 01:21:20;;;;;;;13.17;8.37;;;5.80;91.30;;;;;;5031746;28;20180;-70
2021/11/02 01:23:47;;;;;;;12.87;6.97;;;5.80;91.20;;;;;;5026409;28;20224;-71
2021/11/02 01:26:13;;;;;;;12.60;7.77;;;5.80;91.00;;;;;;5032342;28;20176;-71
2021/11/02 01:28:41;;;;;;;13.90;7.03;;;5.80;90.80;;;;;;5031202;28;20188;-71
2021/11/02 01:31:06;;;;;;;11.73;6.83;;;5.80;90.60;;;;;;5027748;28;20242;-71
2021/11/02 01:33:32;;;;;;;11.83;7.17;;;5.80;90.60;;;;;;5033726;28;20188;-71
2021/11/02 01:35:58;;;;;;;9.67;6.47;;;5.70;90.60;;;;;;5031556;28;20184;-71
2021/11/02 01:38:24;;;;;;;9.83;6.77;;;5.70;90.50;;;;;;5032869;28;20203;-71
2021/11/02 01:40:53;;;;;;;10.07;6.53;;;5.70;90.50;;;;;;5032665;28;20212;-71
2021/11/02 01:43:19;;;;;;;14.83;7.30;;;5.70;90.50;;;;;;5027020;28;20215;-71
2021/11/02 01:45:46;;;;;;;9.87;6.27;;;5.70;90.60;;;;;;5031153;28;20230;-71
2021/11/02 01:48:25;;;;;;;12.03;6.57;;;5.60;90.90;;;;;;5032888;28;20262;-72
2021/11/02 01:50:51;;;;;;;10.27;6.80;;;5.60;90.70;;;;;;5029374;28;20190;-71
2021/11/02 01:53:17;;;;;;;8.63;6.13;;;5.60;91.10;;;;;;5033889;28;20964;-71
2021/11/02 01:55:43;;;;;;;11.37;6.60;;;5.70;91.50;;;;;;5033962;28;20187;-71
2021/11/02 01:58:11;;;;;;;10.57;7.50;;;5.70;91.50;;;;;;5032713;28;20176;-71
2021/11/02 02:00:38;;;;;;;12.50;7.53;;;5.70;91.50;;;;;;5013892;28;20656;-71
2021/11/02 02:03:19;;;;;;;18.10;7.43;;;5.70;91.50;;;;;;5033005;28;20916;-71
2021/11/02 02:06:01;;;;;;;10.60;7.10;;;5.70;91.50;;;;;;5032589;28;20267;-71
2021/11/02 02:08:47;;;;;;;11.07;6.47;;;5.80;91.80;;;;;;5029589;28;20187;-70
2021/11/02 02:11:21;;;;;;;12.90;6.93;;;5.90;91.80;;;;;;5019218;28;20658;-70
2021/11/02 02:14:21;;;;;;;14.20;7.17;;;6.00;91.80;;;;;;5030927;28;20184;-71
2021/11/02 02:16:50;;;;;;;8.03;6.43;;;6.00;91.40;;;;;;4955023;28;20281;-70
2021/11/02 02:19:35;;;;;;;12.20;7.07;;;6.10;91.30;;;;;;4957164;28;20281;-71
2021/11/02 02:22:37;;;;;;;9.17;6.20;;;6.20;90.90;;;;;;4970522;28;20218;-70
2021/11/02 02:25:36;;;;;;;11.97;6.93;;;6.30;90.60;;;;;;4969249;28;20201;-70
2021/11/02 02:28:05;;;;;;;10.67;6.10;;;6.30;90.60;;;;;;4970155;28;20591;-70
2021/11/02 02:30:33;;;;;;;17.37;8.33;;;6.30;90.60;;;;;;4970458;28;20190;-70
2021/11/02 02:33:01;;;;;;;13.23;7.63;;;6.30;91.50;;;;;;4973815;28;20186;-70
2021/11/02 02:35:28;;;;;;;12.60;7.53;;;6.30;91.00;;;;;;4973580;28;20289;-71
2021/11/02 02:37:55;;;;;;;16.90;7.67;;;6.40;91.00;;;;;;4972545;28;20235;-70
2021/11/02 02:40:24;;;;;;;9.77;6.50;;;6.40;90.80;;;;;;4966065;28;20193;-70
2021/11/02 02:42:51;;;;;;;10.47;6.63;;;6.50;90.70;;;;;;4953532;28;20735;-70
2021/11/02 02:45:18;;;;;;;17.20;7.93;;;6.50;90.40;;;;;;4972001;28;20314;-70
2021/11/02 02:47:46;;;;;;;13.10;7.70;;;6.50;90.20;;;;;;4953440;28;20194;-70
2021/11/02 02:50:14;;;;;;;14.27;8.00;;;6.60;90.40;;;;;;4975160;28;20178;-70
2021/11/02 02:52:43;;;;;;;14.03;7.43;;;6.60;90.20;;;;;;4982990;28;20581;-70
2021/11/02 02:55:11;;;;;;;12.87;7.63;;;6.60;90.10;;;;;;5013273;28;20271;-70
2021/11/02 02:57:37;;;;;;;12.07;7.37;;;6.60;90.00;;;;;;5014584;28;20612;-70
2021/11/02 03:00:06;;;;;;;10.23;6.70;;;6.60;90.30;;;;;;5032880;28;20203;-71
2021/11/02 03:02:33;;;;;;;10.80;7.00;;;6.60;90.30;;;;;;5029726;28;20647;-70
2021/11/02 03:05:03;;;;;;;12.20;7.67;;;6.60;90.40;;;;;;5030200;28;20684;-71
2021/11/02 03:07:30;;;;;;;13.97;7.30;;;6.60;90.40;;;;;;5031700;28;20612;-70
2021/11/02 03:09:55;;;;;;;10.00;6.67;;;6.70;90.40;;;;;;5023125;28;20307;-70
2021/11/02 03:12:27;;;;;;;14.80;8.67;;;6.70;90.20;;;;;;5033171;28;20275;-71
2021/11/02 03:17:35;;;;;;;13.27;7.57;;;6.80;90.00;;;;;;5031316;28;20188;-70
2021/11/02 03:55:47;;;;;;;11.80;7.63;;;6.80;90.80;;;;;;4989451;28;20193;-72
2021/11/02 03:58:19;;;;;;;11.33;6.83;;;6.80;90.80;;;;;;4990718;28;20191;-71
2021/11/02 04:44:34;;;;;;;14.57;8.20;;;6.80;91.60;;;;;;5036352;28;20268;-71
2021/11/02 05:58:27;;;;;;;14.60;8.73;;;7.50;91.40;;;;;;5035712;28;20176;-70
2021/11/02 06:28:18;;;;;;;21.47;11.37;;;8.10;90.60;;;;;;4977369;28;20197;-70
2021/11/02 06:31:12;;;;;;;17.27;10.40;;;8.10;91.00;;;;;;4979055;28;20683;-70
2021/11/02 06:33:46;;;;;;;21.20;10.63;;;8.10;91.00;;;;;;4976709;28;20341;-71
2021/11/02 06:36:32;;;;;;;20.67;11.60;;;8.20;90.90;;;;;;4964914;28;20328;-71
2021/11/02 06:50:25;;;;;;;26.57;10.27;;;8.60;90.10;;;;;;4985146;28;20205;-73
2021/11/02 07:18:21;;;;;;;21.87;12.50;;;9.50;88.70;;;;;;4962282;28;20197;-72
2021/11/02 07:21:05;;;;;;;25.40;13.17;;;9.60;88.50;;;;;;4959729;28;20669;-73
2021/11/02 07:23:48;;;;;;;26.57;12.70;;;9.70;88.40;;;;;;4961735;28;20755;-73
2021/11/02 07:26:24;;;;;;;29.30;12.97;;;9.80;88.20;;;;;;4962070;28;20767;-73
2021/11/02 08:47:40;;;;;;;14.57;7.73;;;10.20;92.50;;;;;;5031284;28;20722;-70
2021/11/02 08:50:09;;;;;;;11.43;7.38;;;10.20;92.30;;;;;;5031580;28;20190;-73
2021/11/02 08:52:36;;;;;;;14.43;8.27;;;10.30;92.40;;;;;;5022663;28;20259;-75
2021/11/02 08:55:05;;;;;;;15.13;8.20;;;10.30;92.40;;;;;;5023335;28;20185;-74
2021/11/02 08:57:32;;;;;;;18.03;8.50;;;10.40;92.20;;;;;;5023746;28;20184;-73
2021/11/02 08:59:58;;;;;;;14.77;6.80;;;10.40;92.40;;;;;;5033063;28;20184;-72
2021/11/02 09:02:35;;;;;;;19.00;8.10;;;10.40;91.60;;;;;;5026730;28;20277;-72
2021/11/02 09:05:06;;;;;;;15.98;7.53;;;10.40;91.70;;;;;;5031130;28;20742;-73
2021/11/02 09:07:34;;;;;;;14.63;7.80;;;10.40;92.00;;;;;;5032374;28;20185;-74
2021/11/02 09:10:07;;;;;;;14.68;8.82;;;10.50;92.70;;;;;;5026654;28;20796;-73
2021/11/02 09:12:33;;;;;;;9.55;7.13;;;10.50;92.40;;;;;;5027083;28;20222;-73
2021/11/02 09:15:02;;;;;;;9.37;6.87;;;10.50;92.60;;;;;;5030994;28;20185;-72
2021/11/02 09:17:32;;;;;;;11.67;6.57;;;10.40;92.40;;;;;;5031112;28;20617;-72
2021/11/02 09:20:01;;;;;;;12.83;6.50;;;10.40;92.50;;;;;;5029293;28;20191;-72
2021/11/02 09:22:29;;;;;;;7.65;5.88;;;10.30;93.20;;;;;;5028057;28;20226;-72
2021/11/02 09:24:56;;;;;;;7.10;5.53;;;10.20;92.90;;;;;;5026442;28;20344;-73
2021/11/02 09:27:23;;;;;;;7.90;6.03;;;10.20;93.00;;;;;;5033700;28;20180;-73
2021/11/02 09:29:50;;;;;;;10.07;5.40;;;10.20;93.40;;;;;;5026020;28;20659;-73
2021/11/02 09:32:16;;;;;;;13.15;5.78;;;10.20;93.50;;;;;;5027146;28;20184;-73
2021/11/02 09:34:42;;;;;;;13.00;5.13;;;10.30;93.20;;;;;;5027030;28;20327;-72
2021/11/02 09:37:21;;;;;;;9.43;5.35;;;10.30;93.60;;;;;;5027329;28;20275;-73
2021/11/02 09:39:52;;;;;;;14.60;6.18;;;10.30;93.00;;;;;;5024805;28;20183;-73
2021/11/02 09:42:46;;;;;;;7.67;5.47;;;10.30;93.50;;;;;;5023410;28;20708;-74
2021/11/02 09:45:47;;;;;;;9.73;4.68;;;10.20;93.60;;;;;;5023902;28;20662;-73
2021/11/02 09:48:32;;;;;;;6.50;5.07;;;10.20;94.30;;;;;;5023967;28;20189;-73
2021/11/02 09:51:35;;;;;;;11.87;5.80;;;10.20;94.70;;;;;;5028807;28;20297;-73
2021/11/02 09:54:13;;;;;;;10.47;6.07;;;10.20;94.20;;;;;;5026730;28;20729;-74
2021/11/02 09:57:19;;;;;;;8.77;5.63;;;10.20;94.30;;;;;;5004132;28;20208;-73
2021/11/02 09:59:45;;;;;;;12.55;6.78;;;10.20;94.40;;;;;;5030399;28;20593;-73
2021/11/02 10:02:48;;;;;;;9.20;5.87;;;10.30;94.90;;;;;;5025639;28;20208;-73
2021/11/02 10:05:37;;;;;;;10.33;6.53;;;10.30;94.50;;;;;;5026397;28;20576;-73
2021/11/02 10:08:30;;;;;;;15.70;8.13;;;10.20;94.60;;;;;;5039590;28;20215;-73
2021/11/02 10:11:08;;;;;;;10.37;6.87;;;10.30;94.40;;;;;;5022110;28;20180;-72
2021/11/02 10:13:47;;;;;;;13.85;7.82;;;10.30;94.70;;;;;;5027981;28;20191;-72
2021/11/02 10:17:01;;;;;;;14.97;8.57;;;10.40;94.40;;;;;;5026958;28;20182;-72
2021/11/02 10:19:42;;;;;;;15.33;7.90;;;10.40;94.50;;;;;;4959174;28;20818;-72
2021/11/02 10:22:22;;;;;;;18.42;9.38;;;10.40;94.30;;;;;;4958674;28;20705;-71
2021/11/02 10:25:22;;;;;;;17.77;9.63;;;10.40;94.10;;;;;;4961750;28;20186;-72
2021/11/02 10:28:16;;;;;;;21.87;11.03;;;10.50;93.70;;;;;;4961497;28;20808;-71
2021/11/02 10:30:55;;;;;;;21.43;10.43;;;10.50;94.10;;;;;;4962900;28;20187;-72
2021/11/02 10:33:29;;;;;;;16.67;9.30;;;10.60;94.00;;;;;;4959454;28;20194;-71
2021/11/02 10:36:17;;;;;;;17.95;10.18;;;10.60;94.10;;;;;;4964556;28;21337;-71
2021/11/02 10:38:44;;;;;;;14.25;8.00;;;10.70;93.80;;;;;;4963301;28;20212;-72
2021/11/02 10:41:15;;;;;;;12.40;8.15;;;10.70;94.00;;;;;;4963579;28;20282;-72
2021/11/02 10:43:53;;;;;;;12.07;7.07;;;10.70;93.60;;;;;;4949348;28;20331;-71
2021/11/02 10:46:30;;;;;;;12.60;7.03;;;10.70;93.90;;;;;;4963511;28;20586;-70
2021/11/02 10:48:59;;;;;;;12.95;7.35;;;10.70;93.60;;;;;;4965089;28;20203;-73
2021/11/02 10:51:42;;;;;;;7.90;5.70;;;10.80;94.00;;;;;;4966621;28;20194;-71
2021/11/02 10:54:28;;;;;;;6.97;5.57;;;10.90;93.70;;;;;;4974052;28;20194;-72
2021/11/02 10:57:15;;;;;;;8.43;4.57;;;10.90;93.60;;;;;;5037829;28;20187;-71
2021/11/02 10:59:48;;;;;;;10.52;5.05;;;11.00;93.40;;;;;;5032565;28;20191;-72
2021/11/02 11:02:29;;;;;;;4.93;4.07;;;11.10;93.40;;;;;;5009498;28;20674;-72
2021/11/02 11:05:03;;;;;;;8.10;4.97;;;11.20;93.40;;;;;;5032258;28;20898;-72
2021/11/02 11:07:43;;;;;;;7.57;4.78;;;11.30;93.00;;;;;;5030940;28;20184;-70
2021/11/02 11:10:12;;;;;;;9.05;5.13;;;11.40;93.00;;;;;;5029816;28;20188;-71
2021/11/02 11:12:56;;;;;;;7.72;4.82;;;11.60;92.90;;;;;;5025092;28;20200;-71
2021/11/02 11:15:24;;;;;;;8.32;5.43;;;11.80;92.30;;;;;;5029543;28;20690;-71
2021/11/02 11:17:55;;;;;;;7.20;5.20;;;12.00;92.70;;;;;;5031339;28;20747;-71
2021/11/02 11:20:23;;;;;;;11.82;5.85;;;12.20;92.00;;;;;;5025616;28;20188;-71
2021/11/02 11:22:51;;;;;;;7.97;5.20;;;12.30;91.70;;;;;;5028044;28;20211;-71
2021/11/02 11:25:28;;;;;;;6.93;5.38;;;12.40;91.50;;;;;;5028929;28;20695;-71
2021/11/02 11:27:56;;;;;;;8.75;5.22;;;12.50;90.90;;;;;;5026445;28;20237;-71
2021/11/02 11:30:29;;;;;;;9.13;5.13;;;12.50;90.70;;;;;;5025673;28;20180;-71
2021/11/02 11:32:56;;;;;;;8.30;5.32;;;12.50;90.70;;;;;;5027926;28;20192;-72
2021/11/02 11:35:22;;;;;;;4.78;4.03;;;12.50;90.60;;;;;;5029471;28;20271;-73
2021/11/02 11:37:50;;;;;;;4.40;3.97;;;12.50;90.60;;;;;;5026977;28;20241;-74
2021/11/02 11:40:19;;;;;;;5.65;4.20;;;12.60;90.70;;;;;;5019737;28;20188;-74
2021/11/02 11:42:47;;;;;;;5.18;4.65;;;12.60;90.60;;;;;;5006331;28;20645;-72
2021/11/02 11:45:26;;;;;;;4.65;4.00;;;12.70;90.50;;;;;;5024740;28;20204;-76
2021/11/02 11:48:23;;;;;;;4.25;3.53;;;12.80;90.30;;;;;;5023178;28;20179;-74
2021/11/02 11:50:49;;;;;;;4.82;3.63;;;12.80;89.70;;;;;;4976838;28;20756;-74
2021/11/02 11:53:19;;;;;;;6.07;4.43;;;12.90;90.00;;;;;;4986207;28;20268;-75
2021/11/02 11:56:05;;;;;;;6.43;4.20;;;13.00;89.80;;;;;;4975732;28;20264;-77
2021/11/02 11:58:31;;;;;;;5.38;4.00;;;13.30;89.70;;;;;;4975412;28;20613;-75
2021/11/02 12:01:13;;;;;;;3.70;3.50;;;13.60;89.70;;;;;;4978204;28;20236;-75
2021/11/02 12:04:01;;;;;;;3.97;3.60;;;13.80;88.70;;;;;;4977450;28;20681;-74
2021/11/02 12:06:58;;;;;;;4.65;4.10;;;14.00;87.80;;;;;;4977001;28;20189;-73
2021/11/02 12:09:27;;;;;;;3.65;3.35;;;14.10;87.30;;;;;;4978943;28;20186;-79
2021/11/02 12:12:00;;;;;;;4.22;3.92;;;14.20;86.90;;;;;;4974100;28;20261;-78
2021/11/02 12:14:27;;;;;;;6.47;4.00;;;14.20;86.40;;;;;;4980351;28;20204;-74
2021/11/02 12:17:02;;;;;;;3.83;3.50;;;14.10;86.90;;;;;;4977112;28;20599;-74
2021/11/02 12:19:33;;;;;;;3.63;3.22;;;14.00;86.70;;;;;;4980234;28;20645;-74
2021/11/02 12:22:12;;;;;;;4.18;3.85;;;14.00;86.80;;;;;;4966780;28;20193;-74
2021/11/02 12:24:38;;;;;;;3.30;3.10;;;13.90;87.10;;;;;;4984111;28;20758;-75
2021/11/02 12:27:18;;;;;;;3.17;2.88;;;13.80;87.30;;;;;;5003682;28;20187;-74
2021/11/02 12:29:49;;;;;;;2.97;2.67;;;13.80;87.00;;;;;;5026546;28;20184;-73
2021/11/02 12:32:18;;;;;;;2.75;2.55;;;13.70;87.30;;;;;;5032917;28;20214;-74
2021/11/02 12:34:52;;;;;;;2.25;2.15;;;13.60;87.20;;;;;;5031501;28;20195;-74
2021/11/02 12:37:19;;;;;;;2.30;2.17;;;13.50;87.20;;;;;;5030436;28;20171;-73
2021/11/02 12:39:46;;;;;;;2.55;2.30;;;13.30;86.90;;;;;;5013433;28;20663;-74
2021/11/02 12:42:16;;;;;;;1.98;1.88;;;13.10;87.20;;;;;;5028932;28;20176;-75
2021/11/02 12:44:44;;;;;;;2.35;1.90;;;13.00;87.90;;;;;;5023336;28;20204;-74
2021/11/02 12:47:14;;;;;;;5.78;5.05;;;12.80;88.20;;;;;;5028123;28;20186;-75
2021/11/02 12:49:40;;;;;;;5.72;5.13;;;12.60;89.30;;;;;;5026041;28;20184;-74
2021/11/02 12:52:09;;;;;;;9.13;6.00;;;12.40;88.90;;;;;;5023857;28;20188;-74
2021/11/02 12:54:37;;;;;;;7.50;5.82;;;12.10;89.90;;;;;;5026693;28;20263;-74
2021/11/02 12:57:05;;;;;;;7.10;5.57;;;11.90;90.20;;;;;;5027839;28;20276;-75
2021/11/02 12:59:35;;;;;;;7.65;5.93;;;11.80;90.50;;;;;;5013023;28;20185;-74
2021/11/02 13:02:32;;;;;;;6.82;5.20;;;11.80;91.10;;;;;;5026358;28;20322;-74
2021/11/02 13:05:17;;;;;;;8.57;6.18;;;11.80;91.10;;;;;;4980900;28;20664;-75
2021/11/02 13:07:48;;;;;;;8.43;5.18;;;11.80;91.30;;;;;;4983529;28;20201;-75
2021/11/02 13:10:21;;;;;;;7.70;5.47;;;11.90;90.60;;;;;;4980032;28;20198;-75
2021/11/02 13:12:52;;;;;;;6.78;5.10;;;12.00;90.50;;;;;;4967529;28;20186;-73
2021/11/02 13:15:19;;;;;;;5.15;4.72;;;12.00;90.60;;;;;;4980976;28;20201;-74
2021/11/02 13:17:50;;;;;;;7.30;5.45;;;12.00;91.00;;;;;;4970166;28;20789;-74
2021/11/02 13:20:34;;;;;;;6.30;5.68;;;12.10;90.30;;;;;;4983764;28;20224;-73
2021/11/02 13:23:01;;;;;;;6.10;4.93;;;12.10;90.60;;;;;;4980574;28;21019;-72
2021/11/02 13:25:40;;;;;;;9.13;5.40;;;12.20;90.30;;;;;;4980361;28;20194;-72
2021/11/02 13:28:06;;;;;;;7.00;5.25;;;12.30;89.70;;;;;;4981275;28;20197;-72
2021/11/02 13:30:46;;;;;;;5.10;4.57;;;12.40;90.20;;;;;;4980030;28;20185;-73
2021/11/02 13:33:15;;;;;;;7.03;4.90;;;12.50;89.60;;;;;;4978874;28;20210;-73
2021/11/02 13:35:53;;;;;;;8.23;4.45;;;12.70;90.10;;;;;;4982406;28;20201;-75
2021/11/02 13:38:34;;;;;;;6.70;5.25;;;12.80;90.00;;;;;;4982619;28;20268;-74
2021/11/02 13:41:09;;;;;;;7.70;4.97;;;13.20;89.50;;;;;;4991465;28;20208;-74
2021/11/02 13:43:40;;;;;;;5.20;4.78;;;13.60;88.90;;;;;;5030606;28;20223;-72
2021/11/02 13:46:09;;;;;;;5.47;4.50;;;14.00;88.60;;;;;;5033670;28;20263;-74
2021/11/02 13:48:35;;;;;;;3.97;3.78;;;14.30;87.70;;;;;;5032553;28;20237;-74
2021/11/02 13:51:03;;;;;;;5.28;4.00;;;14.70;86.60;;;;;;5019527;28;20243;-73
2021/11/02 13:53:33;;;;;;;6.03;4.22;;;14.90;84.80;;;;;;5019196;28;20190;-73
2021/11/02 13:56:01;;;;;;;4.03;3.70;;;14.90;83.50;;;;;;5025041;28;20192;-74
2021/11/02 13:58:26;;;;;;;3.50;3.30;;;14.80;83.70;;;;;;5024279;28;20196;-74
2021/11/02 14:00:52;;;;;;;3.63;2.78;;;14.70;84.40;;;;;;5023572;28;20254;-74
2021/11/02 14:03:47;;;;;;;2.05;1.83;;;14.50;84.40;;;;;;5029056;28;20744;-74
2021/11/02 14:06:18;;;;;;;1.88;1.77;;;14.30;84.20;;;;;;5027588;28;20799;-73
2021/11/02 14:08:46;;;;;;;1.90;1.80;;;14.10;84.30;;;;;;5033945;28;20184;-74
2021/11/02 14:11:23;;;;;;;1.48;1.48;;;13.90;84.90;;;;;;5022624;28;20220;-74
2021/11/02 14:13:50;;;;;;;1.30;1.30;;;13.70;84.30;;;;;;5027926;28;20187;-74
2021/11/02 14:16:36;;;;;;;2.65;1.67;;;13.60;85.60;;;;;;5033705;28;20188;-75
2021/11/02 14:19:03;;;;;;;1.30;1.30;;;13.50;85.50;;;;;;5024368;28;20192;-73
2021/11/02 14:21:55;;;;;;;1.58;1.58;;;13.40;86.40;;;;;;5020605;28;20188;-75
2021/11/02 14:24:43;;;;;;;1.55;1.35;;;13.30;86.30;;;;;;5027834;28;20255;-74
2021/11/02 14:27:19;;;;;;;1.90;1.80;;;13.20;87.30;;;;;;5036213;28;20184;-74
2021/11/02 14:29:53;;;;;;;1.67;1.58;;;13.10;87.30;;;;;;5034945;28;20184;-74
2021/11/02 14:32:37;;;;;;;1.88;1.77;;;13.00;87.00;;;;;;5030358;28;20250;-74
2021/11/02 14:35:09;;;;;;;2.22;1.48;;;12.90;87.30;;;;;;5028084;28;20692;-74
2021/11/02 14:37:49;;;;;;;1.63;1.63;;;12.90;87.60;;;;;;5008237;28;20192;-73
2021/11/02 14:40:35;;;;;;;1.95;1.85;;;12.80;87.40;;;;;;5028390;28;20177;-73
2021/11/02 14:43:13;;;;;;;1.55;1.45;;;12.60;87.60;;;;;;5027751;28;20329;-74
2021/11/02 14:45:53;;;;;;;1.75;1.63;;;12.50;88.00;;;;;;5022629;28;20671;-72
2021/11/02 14:48:41;;;;;;;1.63;1.52;;;12.40;88.50;;;;;;5028665;28;20179;-73
2021/11/02 14:51:13;;;;;;;1.67;1.20;;;12.30;88.10;;;;;;5030530;28;20193;-73
2021/11/02 14:53:41;;;;;;;1.90;1.70;;;12.20;88.60;;;;;;5024249;28;20271;-73
2021/11/02 14:56:14;;;;;;;1.58;1.48;;;12.10;89.00;;;;;;5031685;28;20696;-74
2021/11/02 14:58:43;;;;;;;1.77;1.25;;;12.00;89.10;;;;;;5028615;28;20249;-75
2021/11/02 15:01:33;;;;;;;1.42;1.42;;;12.00;89.50;;;;;;5029736;28;20187;-76
2021/11/02 15:04:18;;;;;;;1.92;1.70;;;11.90;89.30;;;;;;5032710;28;20222;-74
2021/11/02 15:06:47;;;;;;;1.83;1.77;;;11.80;89.50;;;;;;5034648;28;20263;-74
2021/11/02 15:09:16;;;;;;;1.48;1.48;;;11.70;89.60;;;;;;5030562;28;20204;-74
2021/11/02 15:11:46;;;;;;;1.85;1.73;;;11.60;90.10;;;;;;5032259;28;20180;-74
2021/11/02 15:14:22;;;;;;;2.05;1.88;;;11.60;90.10;;;;;;5033522;28;20187;-76
2021/11/02 15:16:53;;;;;;;1.95;1.83;;;11.50;90.30;;;;;;5029783;28;20183;-74
2021/11/02 15:19:21;;;;;;;2.60;2.40;;;11.50;90.50;;;;;;5014457;28;20184;-76
2021/11/02 15:22:06;;;;;;;2.45;2.35;;;11.40;90.50;;;;;;5014276;28;20780;-75
2021/11/02 15:24:35;;;;;;;2.33;2.13;;;11.30;90.80;;;;;;5028781;28;20241;-75
2021/11/02 15:27:04;;;;;;;1.75;1.63;;;11.20;91.20;;;;;;5033438;28;20210;-74
2021/11/02 15:29:32;;;;;;;3.38;2.70;;;11.10;91.10;;;;;;5041397;28;20180;-75
2021/11/02 15:31:58;;;;;;;3.20;3.00;;;11.00;91.10;;;;;;5030207;28;20211;-75
2021/11/02 15:34:32;;;;;;;3.55;3.25;;;11.00;91.50;;;;;;5027423;28;20207;-75
2021/11/02 15:37:06;;;;;;;3.65;3.13;;;10.90;91.60;;;;;;5030749;28;20229;-74
2021/11/02 15:39:32;;;;;;;2.72;2.35;;;10.80;91.60;;;;;;5032759;28;20187;-74
2021/11/02 15:41:58;;;;;;;4.30;2.67;;;10.70;91.90;;;;;;5023344;28;20614;-74
2021/11/02 15:44:27;;;;;;;2.85;2.65;;;10.60;92.50;;;;;;5025211;28;20219;-75
2021/11/02 15:46:54;;;;;;;2.75;2.47;;;10.50;92.50;;;;;;5022172;28;20255;-74
2021/11/02 15:49:23;;;;;;;4.03;2.78;;;10.50;92.50;;;;;;5022452;28;20191;-75
2021/11/02 15:51:56;;;;;;;5.22;2.60;;;10.40;92.90;;;;;;5009029;28;20187;-73
2021/11/02 15:54:23;;;;;;;3.87;3.50;;;10.30;92.90;;;;;;5030092;28;20188;-74
2021/11/02 15:56:49;;;;;;;4.03;3.27;;;10.20;93.80;;;;;;5030728;28;20175;-74
2021/11/02 15:59:21;;;;;;;3.43;3.23;;;10.20;93.60;;;;;;5031672;28;20836;-75
2021/11/02 16:01:49;;;;;;;2.97;2.78;;;10.10;93.40;;;;;;5031384;28;20188;-76
2021/11/02 16:04:23;;;;;;;3.80;3.43;;;10.00;93.50;;;;;;5032138;28;20660;-75
2021/11/02 16:07:07;;;;;;;3.20;3.00;;;10.00;93.70;;;;;;5011348;28;20190;-74
2021/11/02 16:10:03;;;;;;;4.10;2.80;;;9.90;93.70;;;;;;5031927;28;20811;-76
2021/11/02 16:12:39;;;;;;;4.93;3.40;;;9.80;93.70;;;;;;4945442;28;20218;-73
2021/11/02 16:15:10;;;;;;;3.37;3.10;;;9.80;93.90;;;;;;4948874;28;20795;-76
2021/11/02 16:17:51;;;;;;;5.20;3.33;;;9.70;94.10;;;;;;4949818;28;20213;-73
2021/11/02 16:20:27;;;;;;;3.77;3.00;;;9.70;93.90;;;;;;4950916;28;20195;-74
2021/11/02 16:22:59;;;;;;;3.23;3.00;;;9.70;94.10;;;;;;4954929;28;20313;-73
2021/11/02 16:25:27;;;;;;;3.77;3.47;;;9.60;94.40;;;;;;4952532;28;20278;-74
2021/11/02 16:28:17;;;;;;;2.80;2.57;;;9.60;94.50;;;;;;4948896;28;20194;-74
2021/11/02 16:30:46;;;;;;;3.03;2.77;;;9.50;94.30;;;;;;4904492;29;20208;-73
2021/11/02 16:33:13;;;;;;;2.87;2.67;;;9.50;94.40;;;;;;4906152;29;20287;-75
2021/11/02 16:35:53;;;;;;;4.00;3.40;;;9.50;94.50;;;;;;4908312;29;20286;-73
2021/11/02 16:38:36;;;;;;;4.77;3.40;;;9.40;94.50;;;;;;4910713;29;20188;-72
2021/11/02 16:41:07;;;;;;;3.70;3.50;;;9.40;94.60;;;;;;4908713;29;20327;-72
2021/11/02 16:43:50;;;;;;;4.47;3.60;;;9.30;95.00;;;;;;4907919;29;20319;-73
2021/11/02 16:46:29;;;;;;;4.50;3.47;;;9.40;94.60;;;;;;4908317;29;20192;-74
2021/11/02 16:49:36;;;;;;;3.90;3.33;;;9.30;94.80;;;;;;4919913;29;20215;-74
2021/11/02 16:52:24;;;;;;;4.00;3.70;;;9.30;94.80;;;;;;4885358;29;20228;-74
2021/11/02 16:54:50;;;;;;;3.10;2.90;;;9.20;95.20;;;;;;4891269;29;20212;-74
2021/11/02 16:57:18;;;;;;;5.53;3.43;;;9.20;95.70;;;;;;4885078;29;20182;-75
2021/11/02 16:59:50;;;;;;;4.83;4.30;;;9.20;95.70;;;;;;4891842;29;20623;-74
2021/11/02 17:02:21;;;;;;;5.80;3.93;;;9.20;95.50;;;;;;4887674;29;20608;-74
2021/11/02 17:05:06;;;;;;;6.37;4.90;;;9.10;95.80;;;;;;4894085;29;20208;-74
2021/11/02 17:07:36;;;;;;;8.93;5.07;;;9.10;95.60;;;;;;4911058;28;20194;-73
2021/11/02 17:10:24;;;;;;;10.63;5.93;;;9.10;95.90;;;;;;4951054;28;20763;-74
2021/11/02 17:12:56;;;;;;;8.83;5.80;;;9.00;95.70;;;;;;4935263;28;20234;-74
2021/11/02 17:15:27;;;;;;;10.70;6.40;;;9.00;95.90;;;;;;4950159;28;20277;-74
2021/11/02 17:17:57;;;;;;;13.53;6.07;;;9.00;96.20;;;;;;4944146;28;20616;-74
2021/11/02 17:20:24;;;;;;;6.70;5.73;;;9.00;95.90;;;;;;4952666;28;20209;-73
2021/11/02 17:22:51;;;;;;;13.10;6.40;;;8.90;96.20;;;;;;4948544;28;20266;-73
2021/11/02 17:25:18;;;;;;;8.60;6.50;;;8.90;96.20;;;;;;4955011;28;20274;-75
2021/11/02 17:27:49;;;;;;;8.60;5.97;;;8.90;96.60;;;;;;4974114;28;20279;-74
2021/11/02 17:30:28;;;;;;;9.40;5.60;;;8.90;96.90;;;;;;5028129;28;20181;-75
2021/11/02 17:32:55;;;;;;;8.97;5.60;;;8.80;96.80;;;;;;5009764;28;20188;-73
2021/11/02 17:35:22;;;;;;;11.07;6.30;;;8.80;96.90;;;;;;5031344;28;20575;-72
2021/11/02 17:37:52;;;;;;;7.47;5.80;;;8.80;97.00;;;;;;5031308;28;20601;-73
2021/11/02 17:40:19;;;;;;;11.33;6.47;;;8.80;97.00;;;;;;5031701;28;20667;-74
2021/11/02 17:42:47;;;;;;;8.73;5.97;;;8.80;96.90;;;;;;5025448;28;20212;-72
2021/11/02 17:45:14;;;;;;;9.27;5.97;;;8.80;97.50;;;;;;5030008;28;20188;-74
2021/11/02 17:47:44;;;;;;;8.30;6.23;;;8.80;97.50;;;;;;5032335;28;21064;-73
2021/11/02 17:50:10;;;;;;;18.97;9.23;;;8.80;98.50;;;;;;5028970;28;20230;-73
2021/11/02 17:52:37;;;;;;;17.50;9.27;;;8.80;98.50;;;;;;5029683;28;20875;-73
2021/11/02 17:55:05;;;;;;;17.73;10.60;;;8.70;98.50;;;;;;5030988;28;20271;-73
2021/11/02 17:57:32;;;;;;;15.80;10.60;;;8.80;98.50;;;;;;5033606;28;20725;-73
2021/11/02 17:59:59;;;;;;;17.10;9.73;;;8.80;98.50;;;;;;5032384;28;20211;-72
2021/11/02 18:02:27;;;;;;;22.27;12.13;;;8.80;98.50;;;;;;5027691;28;20638;-72
2021/11/02 18:04:56;;;;;;;32.53;14.57;;;8.80;98.50;;;;;;5026445;28;20185;-72
2021/11/02 18:07:22;;;;;;;29.53;15.90;;;8.80;98.40;;;;;;5031551;28;20262;-72
2021/11/02 18:09:49;;;;;;;20.27;13.07;;;8.80;98.50;;;;;;5031957;28;20689;-72
2021/11/02 18:12:15;;;;;;;22.53;12.43;;;8.90;98.30;;;;;;5023867;28;20191;-73
2021/11/02 18:14:41;;;;;;;17.17;11.47;;;8.90;98.50;;;;;;5034077;28;20180;-73